createdAt,value
2016-09-18T00:00:02.854Z,0
2016-09-18T00:00:36.315Z,0
2016-09-18T00:01:08.629Z,0
2016-09-18T00:01:40.965Z,0
2016-09-18T00:02:13.303Z,0
2016-09-18T00:02:45.659Z,0
2016-09-18T00:03:17.990Z,0
2016-09-18T00:03:50.310Z,0
2016-09-18T00:04:22.633Z,0
2016-09-18T00:04:54.944Z,0
2016-09-18T00:05:27.276Z,0
2016-09-18T00:05:59.597Z,0
2016-09-18T00:06:32.863Z,0
2016-09-18T00:07:06.149Z,0
2016-09-18T00:07:38.888Z,0
2016-09-18T00:08:11.214Z,0
2016-09-18T00:08:43.530Z,0
2016-09-18T00:09:15.868Z,0
2016-09-18T00:09:48.195Z,0
2016-09-18T00:10:20.527Z,0
2016-09-18T00:10:52.872Z,0
2016-09-18T00:11:26.306Z,0
2016-09-18T00:11:58.642Z,0
2016-09-18T00:12:30.957Z,0
2016-09-18T00:13:03.275Z,0
2016-09-18T00:13:35.594Z,0
2016-09-18T00:14:07.910Z,0
2016-09-18T00:14:40.227Z,0
2016-09-18T00:15:12.548Z,0
2016-09-18T00:15:44.866Z,0
2016-09-18T00:16:17.195Z,0
2016-09-18T00:16:49.536Z,0
2016-09-18T00:17:21.861Z,0
2016-09-18T00:17:54.178Z,0
2016-09-18T00:18:26.526Z,0
2016-09-18T00:18:58.836Z,0
2016-09-18T00:19:31.153Z,0
2016-09-18T00:20:03.484Z,0
2016-09-18T00:20:35.808Z,0
2016-09-18T00:21:08.143Z,0
2016-09-18T00:21:40.461Z,0
2016-09-18T00:22:12.781Z,0
2016-09-18T00:22:45.113Z,0
2016-09-18T00:23:17.446Z,0
2016-09-18T00:23:49.786Z,0
2016-09-18T00:24:22.112Z,0
2016-09-18T00:24:54.463Z,0
2016-09-18T00:25:26.786Z,0
2016-09-18T00:25:59.119Z,0
2016-09-18T00:26:31.452Z,0
2016-09-18T00:27:03.780Z,0
2016-09-18T00:27:36.115Z,0
2016-09-18T00:28:08.441Z,0
2016-09-18T00:28:40.769Z,0
2016-09-18T00:29:13.093Z,0
2016-09-18T00:29:45.411Z,0
2016-09-18T00:30:17.746Z,0
2016-09-18T00:30:50.090Z,0
2016-09-18T00:31:22.425Z,0
2016-09-18T00:31:54.756Z,0
2016-09-18T00:32:27.083Z,0
2016-09-18T00:32:59.419Z,0
2016-09-18T00:33:31.746Z,0
2016-09-18T00:34:04.065Z,0
2016-09-18T00:34:36.398Z,0
2016-09-18T00:35:08.733Z,0
2016-09-18T00:35:41.064Z,0
2016-09-18T00:36:13.388Z,0
2016-09-18T00:36:45.712Z,0
2016-09-18T00:37:18.060Z,0
2016-09-18T00:37:50.390Z,0
2016-09-18T00:38:22.722Z,0
2016-09-18T00:38:55.045Z,0
2016-09-18T00:39:27.352Z,0
2016-09-18T00:39:59.677Z,0
2016-09-18T00:40:32.012Z,0
2016-09-18T00:41:04.343Z,0
2016-09-18T00:41:36.679Z,0
2016-09-18T00:42:09.005Z,0
2016-09-18T00:42:41.335Z,0
2016-09-18T00:43:13.675Z,0
2016-09-18T00:43:46.007Z,0
2016-09-18T00:44:18.327Z,0
2016-09-18T00:44:50.657Z,0
2016-09-18T00:45:22.972Z,0
2016-09-18T00:45:55.299Z,0
2016-09-18T00:46:27.623Z,0
2016-09-18T00:46:59.951Z,0
2016-09-18T00:47:32.273Z,0
2016-09-18T00:48:04.599Z,0
2016-09-18T00:48:36.933Z,0
2016-09-18T00:49:09.254Z,0
2016-09-18T00:49:41.578Z,0
2016-09-18T00:50:13.917Z,0
2016-09-18T00:50:46.240Z,0
2016-09-18T00:51:18.562Z,0
2016-09-18T00:51:50.885Z,0
2016-09-18T00:52:23.215Z,0
2016-09-18T00:52:55.538Z,0
2016-09-18T00:53:27.864Z,0
2016-09-18T00:54:00.189Z,0
2016-09-18T00:54:32.519Z,0
2016-09-18T00:55:04.845Z,0
2016-09-18T00:55:37.181Z,0
2016-09-18T00:56:09.509Z,0
2016-09-18T00:56:41.834Z,0
2016-09-18T00:57:14.160Z,0
2016-09-18T00:57:46.493Z,0
2016-09-18T00:58:18.831Z,0
2016-09-18T00:58:51.165Z,0
2016-09-18T00:59:23.497Z,0
2016-09-18T00:59:55.813Z,0
2016-09-18T01:00:28.148Z,0
2016-09-18T01:01:00.472Z,0
2016-09-18T01:01:32.792Z,0
2016-09-18T01:02:05.122Z,0
2016-09-18T01:02:37.447Z,0
2016-09-18T01:03:09.768Z,0
2016-09-18T01:03:42.098Z,0
2016-09-18T01:04:14.425Z,0
2016-09-18T01:04:46.752Z,0
2016-09-18T01:05:19.089Z,0
2016-09-18T01:05:51.426Z,0
2016-09-18T01:06:23.752Z,0
2016-09-18T01:06:56.089Z,0
2016-09-18T01:07:28.422Z,0
2016-09-18T01:08:00.752Z,0
2016-09-18T01:08:33.084Z,0
2016-09-18T01:09:05.405Z,0
2016-09-18T01:09:37.731Z,0
2016-09-18T01:10:10.070Z,0
2016-09-18T01:10:42.408Z,0
2016-09-18T01:11:14.724Z,0
2016-09-18T01:11:47.046Z,0
2016-09-18T01:12:19.376Z,0
2016-09-18T01:12:51.708Z,0
2016-09-18T01:13:24.023Z,0
2016-09-18T01:13:56.356Z,0
2016-09-18T01:14:28.693Z,0
2016-09-18T01:15:01.034Z,0
2016-09-18T01:15:33.390Z,0
2016-09-18T01:16:05.719Z,0
2016-09-18T01:16:38.056Z,0
2016-09-18T01:17:10.387Z,0
2016-09-18T01:17:42.720Z,0
2016-09-18T01:18:15.040Z,0
2016-09-18T01:18:47.363Z,0
2016-09-18T01:19:19.694Z,0
2016-09-18T01:19:52.029Z,0
2016-09-18T01:20:24.363Z,0
2016-09-18T01:20:56.686Z,0
2016-09-18T01:21:29.019Z,0
2016-09-18T01:22:01.351Z,0
2016-09-18T01:22:33.706Z,0
2016-09-18T01:23:06.047Z,0
2016-09-18T01:23:38.382Z,0
2016-09-18T01:24:10.694Z,0
2016-09-18T01:24:43.019Z,0
2016-09-18T01:25:15.349Z,0
2016-09-18T01:25:47.685Z,0
2016-09-18T01:26:20.015Z,0
2016-09-18T01:26:52.332Z,0
2016-09-18T01:27:24.667Z,0
2016-09-18T01:27:57.002Z,0
2016-09-18T01:28:29.335Z,0
2016-09-18T01:29:01.671Z,0
2016-09-18T01:29:34.009Z,0
2016-09-18T01:30:06.351Z,0
2016-09-18T01:30:38.670Z,0
2016-09-18T01:31:10.994Z,0
2016-09-18T01:31:43.335Z,0
2016-09-18T01:32:15.668Z,0
2016-09-18T01:32:47.998Z,0
2016-09-18T01:33:20.333Z,0
2016-09-18T01:33:52.660Z,0
2016-09-18T01:34:24.985Z,0
2016-09-18T01:34:57.313Z,0
2016-09-18T01:35:29.638Z,0
2016-09-18T01:36:01.984Z,0
2016-09-18T01:36:34.318Z,0
2016-09-18T01:37:06.638Z,0
2016-09-18T01:37:38.953Z,0
2016-09-18T01:38:11.281Z,0
2016-09-18T01:38:43.623Z,0
2016-09-18T01:39:15.925Z,0
2016-09-18T01:39:48.260Z,0
2016-09-18T01:40:20.579Z,0
2016-09-18T01:40:52.926Z,0
2016-09-18T01:41:25.261Z,0
2016-09-18T01:41:57.571Z,0
2016-09-18T01:42:29.886Z,0
2016-09-18T01:43:02.244Z,0
2016-09-18T01:43:34.579Z,0
2016-09-18T01:44:06.900Z,0
2016-09-18T01:44:39.210Z,0
2016-09-18T01:45:11.539Z,0
2016-09-18T01:45:43.879Z,0
2016-09-18T01:46:16.204Z,0
2016-09-18T01:46:48.529Z,0
2016-09-18T01:47:20.855Z,0
2016-09-18T01:47:53.187Z,0
2016-09-18T01:48:25.518Z,0
2016-09-18T01:48:57.842Z,0
2016-09-18T01:49:30.167Z,0
2016-09-18T01:50:02.513Z,0
2016-09-18T01:50:34.841Z,0
2016-09-18T01:51:07.160Z,0
2016-09-18T01:51:39.490Z,0
2016-09-18T01:52:11.825Z,0
2016-09-18T01:52:44.161Z,0
2016-09-18T01:53:16.484Z,0
2016-09-18T01:53:48.804Z,0
2016-09-18T01:54:21.131Z,0
2016-09-18T01:54:53.461Z,0
2016-09-18T01:55:25.800Z,0
2016-09-18T01:55:58.122Z,0
2016-09-18T01:56:30.456Z,0
2016-09-18T01:57:02.792Z,0
2016-09-18T01:57:35.125Z,0
2016-09-18T01:58:07.452Z,0
2016-09-18T01:58:39.776Z,0
2016-09-18T01:59:12.099Z,0
2016-09-18T01:59:44.431Z,0
2016-09-18T02:00:16.766Z,0
2016-09-18T02:00:49.092Z,0
2016-09-18T02:01:21.415Z,0
2016-09-18T02:01:53.752Z,0
2016-09-18T02:02:26.073Z,0
2016-09-18T02:02:58.392Z,0
2016-09-18T02:03:30.725Z,0
2016-09-18T02:04:03.057Z,0
2016-09-18T02:04:35.385Z,0
2016-09-18T02:05:07.729Z,0
2016-09-18T02:05:40.055Z,0
2016-09-18T02:06:12.388Z,0
2016-09-18T02:06:44.708Z,0
2016-09-18T02:07:17.047Z,0
2016-09-18T02:07:49.379Z,0
2016-09-18T02:08:21.718Z,0
2016-09-18T02:08:54.037Z,0
2016-09-18T02:09:26.383Z,0
2016-09-18T02:09:59.439Z,0
2016-09-18T02:10:31.774Z,0
2016-09-18T02:11:04.100Z,0
2016-09-18T02:11:36.450Z,0
2016-09-18T02:12:08.768Z,0
2016-09-18T02:12:41.083Z,0
2016-09-18T02:13:13.416Z,0
2016-09-18T02:13:45.748Z,0
2016-09-18T02:14:18.073Z,0
2016-09-18T02:14:50.399Z,0
2016-09-18T02:15:22.725Z,0
2016-09-18T02:15:55.065Z,0
2016-09-18T02:16:27.399Z,0
2016-09-18T02:16:59.729Z,0
2016-09-18T02:17:32.060Z,0
2016-09-18T02:18:04.397Z,0
2016-09-18T02:18:36.732Z,0
2016-09-18T02:19:09.064Z,0
2016-09-18T02:19:41.385Z,0
2016-09-18T02:20:13.706Z,0
2016-09-18T02:20:46.042Z,0
2016-09-18T02:21:18.383Z,0
2016-09-18T02:21:50.697Z,0
2016-09-18T02:22:23.030Z,0
2016-09-18T02:22:55.362Z,0
2016-09-18T02:23:27.695Z,0
2016-09-18T02:24:00.026Z,0
2016-09-18T02:24:32.341Z,0
2016-09-18T02:25:04.677Z,0
2016-09-18T02:25:37.014Z,0
2016-09-18T02:26:09.342Z,0
2016-09-18T02:26:41.680Z,0
2016-09-18T02:27:14.012Z,0
2016-09-18T02:27:46.349Z,0
2016-09-18T02:28:18.686Z,0
2016-09-18T02:28:51.008Z,0
2016-09-18T02:29:23.342Z,0
2016-09-18T02:29:55.672Z,0
2016-09-18T02:30:27.988Z,0
2016-09-18T02:31:00.321Z,0
2016-09-18T02:31:32.653Z,0
2016-09-18T02:32:04.973Z,0
2016-09-18T02:32:37.311Z,0
2016-09-18T02:33:09.627Z,0
2016-09-18T02:33:41.958Z,0
2016-09-18T02:34:14.299Z,0
2016-09-18T02:34:46.629Z,0
2016-09-18T02:35:18.962Z,0
2016-09-18T02:35:51.272Z,0
2016-09-18T02:36:23.598Z,0
2016-09-18T02:36:55.930Z,0
2016-09-18T02:37:28.264Z,0
2016-09-18T02:38:00.598Z,0
2016-09-18T02:38:32.937Z,0
2016-09-18T02:39:05.272Z,0
2016-09-18T02:39:37.604Z,0
2016-09-18T02:40:09.926Z,0
2016-09-18T02:40:42.259Z,0
2016-09-18T02:41:14.585Z,0
2016-09-18T02:41:46.910Z,0
2016-09-18T02:42:19.253Z,0
2016-09-18T02:42:51.583Z,0
2016-09-18T02:43:23.914Z,0
2016-09-18T02:43:56.242Z,0
2016-09-18T02:44:28.585Z,0
2016-09-18T02:45:00.931Z,0
2016-09-18T02:45:33.260Z,0
2016-09-18T02:46:05.584Z,0
2016-09-18T02:46:37.908Z,0
2016-09-18T02:47:10.255Z,0
2016-09-18T02:47:42.588Z,0
2016-09-18T02:48:14.918Z,0
2016-09-18T02:48:47.241Z,0
2016-09-18T02:49:19.576Z,0
2016-09-18T02:49:51.917Z,0
2016-09-18T02:50:24.247Z,0
2016-09-18T02:50:56.580Z,0
2016-09-18T02:51:28.916Z,0
2016-09-18T02:52:01.245Z,0
2016-09-18T02:52:33.564Z,0
2016-09-18T02:53:05.882Z,0
2016-09-18T02:53:38.214Z,0
2016-09-18T02:54:10.545Z,0
2016-09-18T02:54:42.881Z,0
2016-09-18T02:55:15.211Z,0
2016-09-18T02:55:47.557Z,0
2016-09-18T02:56:19.891Z,0
2016-09-18T02:56:52.232Z,0
2016-09-18T02:57:24.580Z,0
2016-09-18T02:57:56.913Z,0
2016-09-18T02:58:29.239Z,0
2016-09-18T02:59:01.572Z,0
2016-09-18T02:59:33.910Z,0
2016-09-18T03:00:06.248Z,0
2016-09-18T03:00:38.579Z,0
2016-09-18T03:01:10.920Z,0
2016-09-18T03:01:43.251Z,0
2016-09-18T03:02:15.576Z,0
2016-09-18T03:02:47.907Z,0
2016-09-18T03:03:20.235Z,0
2016-09-18T03:03:52.548Z,0
2016-09-18T03:04:24.865Z,0
2016-09-18T03:04:57.205Z,0
2016-09-18T03:05:29.536Z,0
2016-09-18T03:06:01.871Z,0
2016-09-18T03:06:34.205Z,0
2016-09-18T03:07:06.548Z,0
2016-09-18T03:07:38.870Z,0
2016-09-18T03:08:11.196Z,0
2016-09-18T03:08:43.537Z,0
2016-09-18T03:09:15.866Z,0
2016-09-18T03:09:48.218Z,0
2016-09-18T03:10:20.551Z,0
2016-09-18T03:10:52.882Z,0
2016-09-18T03:11:25.217Z,0
2016-09-18T03:11:57.564Z,0
2016-09-18T03:12:29.887Z,0
2016-09-18T03:13:02.220Z,0
2016-09-18T03:13:34.540Z,0
2016-09-18T03:14:06.864Z,0
2016-09-18T03:14:39.215Z,0
2016-09-18T03:15:11.540Z,0
2016-09-18T03:15:43.858Z,0
2016-09-18T03:16:16.186Z,0
2016-09-18T03:16:48.512Z,0
2016-09-18T03:17:20.842Z,0
2016-09-18T03:17:53.179Z,0
2016-09-18T03:18:25.521Z,0
2016-09-18T03:18:57.864Z,0
2016-09-18T03:19:30.189Z,0
2016-09-18T03:20:02.527Z,0
2016-09-18T03:20:34.855Z,0
2016-09-18T03:21:07.195Z,0
2016-09-18T03:21:39.529Z,0
2016-09-18T03:22:11.862Z,0
2016-09-18T03:22:44.212Z,0
2016-09-18T03:23:16.544Z,0
2016-09-18T03:23:48.879Z,0
2016-09-18T03:24:21.200Z,0
2016-09-18T03:24:53.515Z,0
2016-09-18T03:25:25.846Z,0
2016-09-18T03:25:58.179Z,0
2016-09-18T03:26:30.498Z,0
2016-09-18T03:27:02.819Z,0
2016-09-18T03:27:35.165Z,0
2016-09-18T03:28:07.485Z,0
2016-09-18T03:28:39.839Z,0
2016-09-18T03:29:12.163Z,0
2016-09-18T03:29:44.498Z,0
2016-09-18T03:30:16.824Z,0
2016-09-18T03:30:49.142Z,0
2016-09-18T03:31:21.462Z,0
2016-09-18T03:31:53.796Z,0
2016-09-18T03:32:26.122Z,0
2016-09-18T03:32:58.457Z,0
2016-09-18T03:33:30.773Z,0
2016-09-18T03:34:03.082Z,0
2016-09-18T03:34:35.412Z,0
2016-09-18T03:35:07.748Z,0
2016-09-18T03:35:40.076Z,0
2016-09-18T03:36:12.392Z,0
2016-09-18T03:36:44.720Z,0
2016-09-18T03:37:17.053Z,0
2016-09-18T03:37:49.374Z,0
2016-09-18T03:38:21.712Z,0
2016-09-18T03:38:54.039Z,0
2016-09-18T03:39:26.362Z,0
2016-09-18T03:39:58.703Z,0
2016-09-18T03:40:31.028Z,0
2016-09-18T03:41:03.331Z,0
2016-09-18T03:41:35.656Z,0
2016-09-18T03:42:07.979Z,0
2016-09-18T03:42:40.298Z,0
2016-09-18T03:43:12.617Z,0
2016-09-18T03:43:44.943Z,0
2016-09-18T03:44:17.277Z,0
2016-09-18T03:44:49.596Z,0
2016-09-18T03:45:21.901Z,0
2016-09-18T03:45:54.235Z,0
2016-09-18T03:46:26.570Z,0
2016-09-18T03:46:58.909Z,0
2016-09-18T03:47:31.236Z,0
2016-09-18T03:48:03.570Z,0
2016-09-18T03:48:35.898Z,0
2016-09-18T03:49:08.209Z,0
2016-09-18T03:49:40.543Z,0
2016-09-18T03:50:12.873Z,0
2016-09-18T03:50:45.185Z,0
2016-09-18T03:51:17.509Z,0
2016-09-18T03:51:49.827Z,0
2016-09-18T03:52:22.163Z,0
2016-09-18T03:52:54.496Z,0
2016-09-18T03:53:26.833Z,0
2016-09-18T03:53:59.153Z,0
2016-09-18T03:54:31.477Z,0
2016-09-18T03:55:03.799Z,0
2016-09-18T03:55:36.131Z,0
2016-09-18T03:56:08.470Z,0
2016-09-18T03:56:40.800Z,0
2016-09-18T03:57:13.146Z,0
2016-09-18T03:57:45.480Z,0
2016-09-18T03:58:17.798Z,0
2016-09-18T03:58:50.125Z,0
2016-09-18T03:59:22.455Z,0
2016-09-18T03:59:54.815Z,0
2016-09-18T04:00:27.148Z,0
2016-09-18T04:00:59.475Z,0
2016-09-18T04:01:31.795Z,0
2016-09-18T04:02:04.150Z,0
2016-09-18T04:02:36.483Z,0
2016-09-18T04:03:08.836Z,0
2016-09-18T04:03:41.162Z,0
2016-09-18T04:04:13.484Z,0
2016-09-18T04:04:45.803Z,0
2016-09-18T04:05:18.105Z,0
2016-09-18T04:05:50.453Z,0
2016-09-18T04:06:22.776Z,0
2016-09-18T04:06:55.104Z,0
2016-09-18T04:07:27.439Z,0
2016-09-18T04:07:59.780Z,0
2016-09-18T04:08:32.120Z,0
2016-09-18T04:09:04.458Z,0
2016-09-18T04:09:36.776Z,0
2016-09-18T04:10:09.090Z,0
2016-09-18T04:10:41.431Z,0
2016-09-18T04:11:13.754Z,0
2016-09-18T04:11:46.076Z,0
2016-09-18T04:12:18.421Z,0
2016-09-18T04:12:50.751Z,0
2016-09-18T04:13:23.081Z,0
2016-09-18T04:13:55.404Z,0
2016-09-18T04:14:27.739Z,0
2016-09-18T04:15:00.063Z,0
2016-09-18T04:15:32.371Z,0
2016-09-18T04:16:04.707Z,0
2016-09-18T04:16:37.039Z,0
2016-09-18T04:17:09.368Z,0
2016-09-18T04:17:41.691Z,0
2016-09-18T04:18:14.027Z,0
2016-09-18T04:18:46.361Z,0
2016-09-18T04:19:18.693Z,0
2016-09-18T04:19:51.022Z,0
2016-09-18T04:20:23.356Z,0
2016-09-18T04:20:55.685Z,0
2016-09-18T04:21:28.016Z,0
2016-09-18T04:22:00.337Z,0
2016-09-18T04:22:32.665Z,0
2016-09-18T04:23:04.992Z,0
2016-09-18T04:23:37.310Z,0
2016-09-18T04:24:09.639Z,0
2016-09-18T04:24:41.976Z,0
2016-09-18T04:25:14.303Z,0
2016-09-18T04:25:46.624Z,0
2016-09-18T04:26:18.943Z,0
2016-09-18T04:26:51.289Z,0
2016-09-18T04:27:23.626Z,0
2016-09-18T04:27:55.960Z,0
2016-09-18T04:28:28.299Z,0
2016-09-18T04:29:00.636Z,0
2016-09-18T04:29:32.973Z,0
2016-09-18T04:30:05.302Z,0
2016-09-18T04:30:37.643Z,0
2016-09-18T04:31:09.959Z,0
2016-09-18T04:31:42.291Z,0
2016-09-18T04:32:14.605Z,0
2016-09-18T04:32:46.923Z,0
2016-09-18T04:33:19.262Z,0
2016-09-18T04:33:51.586Z,0
2016-09-18T04:34:23.926Z,0
2016-09-18T04:34:56.259Z,0
2016-09-18T04:35:28.579Z,0
2016-09-18T04:36:00.916Z,0
2016-09-18T04:36:33.216Z,0
2016-09-18T04:37:05.543Z,0
2016-09-18T04:37:37.862Z,0
2016-09-18T04:38:10.184Z,0
2016-09-18T04:38:42.515Z,0
2016-09-18T04:39:14.836Z,0
2016-09-18T04:39:47.164Z,0
2016-09-18T04:40:19.495Z,0
2016-09-18T04:40:51.837Z,0
2016-09-18T04:41:24.152Z,0
2016-09-18T04:41:56.479Z,0
2016-09-18T04:42:28.805Z,0
2016-09-18T04:43:01.136Z,0
2016-09-18T04:43:33.459Z,0
2016-09-18T04:44:05.776Z,0
2016-09-18T04:44:38.105Z,0
2016-09-18T04:45:10.428Z,0
2016-09-18T04:45:42.754Z,0
2016-09-18T04:46:15.066Z,0
2016-09-18T04:46:47.414Z,0
2016-09-18T04:47:19.737Z,0
2016-09-18T04:47:52.065Z,0
2016-09-18T04:48:24.410Z,4
2016-09-18T04:48:56.746Z,4
2016-09-18T04:49:29.084Z,4
2016-09-18T04:50:01.419Z,4
2016-09-18T04:50:33.742Z,4
2016-09-18T04:51:06.070Z,4
2016-09-18T04:51:38.398Z,0
2016-09-18T04:52:10.727Z,0
2016-09-18T04:52:43.044Z,4
2016-09-18T04:53:15.377Z,4
2016-09-18T04:53:47.712Z,4
2016-09-18T04:54:20.046Z,4
2016-09-18T04:54:52.370Z,4
2016-09-18T04:55:24.698Z,4
2016-09-18T04:55:57.035Z,4
2016-09-18T04:56:29.385Z,4
2016-09-18T04:57:01.732Z,4
2016-09-18T04:57:34.067Z,8
2016-09-18T04:58:06.383Z,8
2016-09-18T04:58:38.723Z,8
2016-09-18T04:59:11.047Z,4
2016-09-18T04:59:43.372Z,4
2016-09-18T05:00:15.704Z,8
2016-09-18T05:00:48.015Z,8
2016-09-18T05:01:20.362Z,8
2016-09-18T05:01:52.681Z,8
2016-09-18T05:02:25.012Z,8
2016-09-18T05:02:57.344Z,8
2016-09-18T05:03:29.680Z,8
2016-09-18T05:04:02.006Z,12
2016-09-18T05:04:34.349Z,12
2016-09-18T05:05:06.675Z,12
2016-09-18T05:05:38.994Z,8
2016-09-18T05:06:11.317Z,12
2016-09-18T05:06:43.651Z,12
2016-09-18T05:07:15.984Z,12
2016-09-18T05:07:48.312Z,16
2016-09-18T05:08:20.638Z,16
2016-09-18T05:08:52.961Z,16
2016-09-18T05:09:25.290Z,12
2016-09-18T05:09:57.622Z,12
2016-09-18T05:10:29.953Z,16
2016-09-18T05:11:02.277Z,16
2016-09-18T05:11:34.613Z,20
2016-09-18T05:12:06.959Z,16
2016-09-18T05:12:39.284Z,16
2016-09-18T05:13:11.605Z,16
2016-09-18T05:13:43.940Z,20
2016-09-18T05:14:16.281Z,20
2016-09-18T05:14:48.619Z,20
2016-09-18T05:15:20.948Z,24
2016-09-18T05:15:53.269Z,20
2016-09-18T05:16:25.595Z,24
2016-09-18T05:16:57.941Z,24
2016-09-18T05:17:30.260Z,24
2016-09-18T05:18:02.610Z,24
2016-09-18T05:18:34.940Z,28
2016-09-18T05:19:07.284Z,28
2016-09-18T05:19:39.599Z,28
2016-09-18T05:20:11.917Z,28
2016-09-18T05:20:44.243Z,28
2016-09-18T05:21:16.577Z,32
2016-09-18T05:21:48.914Z,36
2016-09-18T05:22:21.249Z,36
2016-09-18T05:22:53.570Z,40
2016-09-18T05:23:25.895Z,44
2016-09-18T05:23:58.232Z,44
2016-09-18T05:24:30.545Z,44
2016-09-18T05:25:02.876Z,52
2016-09-18T05:25:35.201Z,48
2016-09-18T05:26:07.513Z,48
2016-09-18T05:26:39.837Z,48
2016-09-18T05:27:12.167Z,48
2016-09-18T05:27:44.487Z,52
2016-09-18T05:28:16.813Z,52
2016-09-18T05:28:49.143Z,56
2016-09-18T05:29:21.486Z,52
2016-09-18T05:29:53.817Z,56
2016-09-18T05:30:26.149Z,56
2016-09-18T05:30:58.487Z,56
2016-09-18T05:31:30.820Z,52
2016-09-18T05:32:03.155Z,56
2016-09-18T05:32:35.483Z,52
2016-09-18T05:33:07.804Z,56
2016-09-18T05:33:40.131Z,56
2016-09-18T05:34:12.456Z,56
2016-09-18T05:34:44.789Z,60
2016-09-18T05:35:17.131Z,64
2016-09-18T05:35:49.448Z,64
2016-09-18T05:36:21.779Z,76
2016-09-18T05:36:54.114Z,84
2016-09-18T05:37:26.452Z,92
2016-09-18T05:37:58.780Z,100
2016-09-18T05:38:31.118Z,104
2016-09-18T05:39:03.466Z,108
2016-09-18T05:39:35.801Z,108
2016-09-18T05:40:08.120Z,116
2016-09-18T05:40:40.439Z,120
2016-09-18T05:41:12.786Z,124
2016-09-18T05:41:45.123Z,120
2016-09-18T05:42:17.458Z,112
2016-09-18T05:42:49.790Z,108
2016-09-18T05:43:22.126Z,104
2016-09-18T05:43:54.442Z,104
2016-09-18T05:44:26.761Z,100
2016-09-18T05:44:59.089Z,104
2016-09-18T05:45:31.411Z,108
2016-09-18T05:46:03.753Z,112
2016-09-18T05:46:36.082Z,108
2016-09-18T05:47:08.416Z,112
2016-09-18T05:47:40.727Z,112
2016-09-18T05:48:13.068Z,108
2016-09-18T05:48:45.403Z,108
2016-09-18T05:49:17.737Z,104
2016-09-18T05:49:50.071Z,100
2016-09-18T05:50:22.379Z,104
2016-09-18T05:50:54.694Z,108
2016-09-18T05:51:27.028Z,108
2016-09-18T05:51:59.359Z,108
2016-09-18T05:52:31.672Z,108
2016-09-18T05:53:04.003Z,104
2016-09-18T05:53:36.331Z,108
2016-09-18T05:54:08.662Z,108
2016-09-18T05:54:40.986Z,108
2016-09-18T05:55:13.314Z,104
2016-09-18T05:55:45.660Z,104
2016-09-18T05:56:17.990Z,108
2016-09-18T05:56:50.319Z,116
2016-09-18T05:57:22.634Z,120
2016-09-18T05:57:54.972Z,120
2016-09-18T05:58:27.301Z,116
2016-09-18T05:58:59.623Z,112
2016-09-18T05:59:31.946Z,112
2016-09-18T06:00:04.277Z,112
2016-09-18T06:00:36.638Z,108
2016-09-18T06:01:08.957Z,112
2016-09-18T06:01:41.294Z,120
2016-09-18T06:02:13.626Z,124
2016-09-18T06:02:45.956Z,132
2016-09-18T06:03:18.289Z,136
2016-09-18T06:03:50.631Z,144
2016-09-18T06:04:22.962Z,152
2016-09-18T06:04:55.295Z,164
2016-09-18T06:05:27.623Z,180
2016-09-18T06:05:59.948Z,192
2016-09-18T06:06:32.283Z,200
2016-09-18T06:07:04.615Z,196
2016-09-18T06:07:36.941Z,184
2016-09-18T06:08:09.271Z,184
2016-09-18T06:08:41.616Z,188
2016-09-18T06:09:13.939Z,200
2016-09-18T06:09:46.266Z,192
2016-09-18T06:10:18.596Z,180
2016-09-18T06:10:50.909Z,184
2016-09-18T06:11:23.212Z,184
2016-09-18T06:11:55.555Z,196
2016-09-18T06:12:27.881Z,200
2016-09-18T06:13:00.214Z,184
2016-09-18T06:13:32.547Z,184
2016-09-18T06:14:04.872Z,188
2016-09-18T06:14:37.202Z,192
2016-09-18T06:15:09.551Z,196
2016-09-18T06:15:41.878Z,204
2016-09-18T06:16:14.217Z,208
2016-09-18T06:16:46.550Z,204
2016-09-18T06:17:18.886Z,224
2016-09-18T06:17:51.216Z,244
2016-09-18T06:18:23.567Z,268
2016-09-18T06:18:55.907Z,292
2016-09-18T06:19:28.241Z,324
2016-09-18T06:20:00.578Z,388
2016-09-18T06:20:32.898Z,444
2016-09-18T06:21:05.239Z,448
2016-09-18T06:21:37.575Z,448
2016-09-18T06:22:09.917Z,472
2016-09-18T06:22:42.255Z,500
2016-09-18T06:23:14.581Z,512
2016-09-18T06:23:46.909Z,496
2016-09-18T06:24:19.257Z,432
2016-09-18T06:24:51.600Z,388
2016-09-18T06:25:23.943Z,356
2016-09-18T06:25:56.278Z,336
2016-09-18T06:26:28.602Z,324
2016-09-18T06:27:00.923Z,316
2016-09-18T06:27:33.251Z,308
2016-09-18T06:28:05.578Z,308
2016-09-18T06:28:37.915Z,308
2016-09-18T06:29:10.238Z,332
2016-09-18T06:29:42.580Z,344
2016-09-18T06:30:14.907Z,340
2016-09-18T06:30:47.254Z,332
2016-09-18T06:31:19.571Z,340
2016-09-18T06:31:51.903Z,360
2016-09-18T06:32:24.230Z,372
2016-09-18T06:32:56.573Z,372
2016-09-18T06:33:28.902Z,356
2016-09-18T06:34:01.220Z,344
2016-09-18T06:34:33.556Z,352
2016-09-18T06:35:05.889Z,368
2016-09-18T06:35:38.230Z,364
2016-09-18T06:36:10.553Z,372
2016-09-18T06:36:42.886Z,376
2016-09-18T06:37:15.225Z,380
2016-09-18T06:37:47.554Z,384
2016-09-18T06:38:19.881Z,396
2016-09-18T06:38:52.210Z,412
2016-09-18T06:39:24.536Z,420
2016-09-18T06:39:56.870Z,436
2016-09-18T06:40:29.188Z,444
2016-09-18T06:41:01.537Z,456
2016-09-18T06:41:33.872Z,492
2016-09-18T06:42:06.204Z,516
2016-09-18T06:42:38.545Z,576
2016-09-18T06:43:10.876Z,628
2016-09-18T06:43:43.195Z,616
2016-09-18T06:44:15.522Z,636
2016-09-18T06:44:47.835Z,672
2016-09-18T06:45:20.160Z,684
2016-09-18T06:45:52.495Z,704
2016-09-18T06:46:24.831Z,720
2016-09-18T06:46:57.148Z,708
2016-09-18T06:47:29.479Z,688
2016-09-18T06:48:01.801Z,652
2016-09-18T06:48:34.121Z,628
2016-09-18T06:49:06.437Z,608
2016-09-18T06:49:38.764Z,604
2016-09-18T06:50:11.090Z,592
2016-09-18T06:50:43.412Z,596
2016-09-18T06:51:15.754Z,620
2016-09-18T06:51:48.088Z,620
2016-09-18T06:52:20.422Z,628
2016-09-18T06:52:52.775Z,636
2016-09-18T06:53:25.098Z,628
2016-09-18T06:53:57.433Z,632
2016-09-18T06:54:29.750Z,628
2016-09-18T06:55:02.069Z,596
2016-09-18T06:55:34.396Z,600
2016-09-18T06:56:06.728Z,628
2016-09-18T06:56:39.072Z,636
2016-09-18T06:57:11.398Z,668
2016-09-18T06:57:43.735Z,688
2016-09-18T06:58:16.054Z,676
2016-09-18T06:58:48.379Z,680
2016-09-18T06:59:20.707Z,700
2016-09-18T06:59:53.039Z,676
2016-09-18T07:00:25.372Z,672
2016-09-18T07:00:57.710Z,668
2016-09-18T07:01:30.048Z,688
2016-09-18T07:02:02.378Z,708
2016-09-18T07:02:34.704Z,708
2016-09-18T07:03:07.037Z,680
2016-09-18T07:03:39.359Z,672
2016-09-18T07:04:11.696Z,704
2016-09-18T07:04:44.018Z,728
2016-09-18T07:05:16.367Z,724
2016-09-18T07:05:48.704Z,700
2016-09-18T07:06:21.036Z,664
2016-09-18T07:06:53.379Z,648
2016-09-18T07:07:25.721Z,656
2016-09-18T07:07:58.076Z,676
2016-09-18T07:08:30.406Z,672
2016-09-18T07:09:02.737Z,676
2016-09-18T07:09:35.071Z,668
2016-09-18T07:10:07.397Z,652
2016-09-18T07:10:39.718Z,656
2016-09-18T07:11:12.049Z,676
2016-09-18T07:11:44.383Z,712
2016-09-18T07:12:16.700Z,744
2016-09-18T07:12:49.017Z,752
2016-09-18T07:13:21.346Z,760
2016-09-18T07:13:53.667Z,756
2016-09-18T07:14:25.987Z,744
2016-09-18T07:14:58.317Z,796
2016-09-18T07:15:30.640Z,816
2016-09-18T07:16:02.975Z,840
2016-09-18T07:16:35.307Z,876
2016-09-18T07:17:07.639Z,916
2016-09-18T07:17:39.966Z,968
2016-09-18T07:18:12.295Z,1032
2016-09-18T07:18:44.614Z,1128
2016-09-18T07:19:16.933Z,1124
2016-09-18T07:19:49.258Z,1024
2016-09-18T07:20:21.602Z,972
2016-09-18T07:20:53.922Z,1008
2016-09-18T07:21:26.248Z,1012
2016-09-18T07:21:58.580Z,1000
2016-09-18T07:22:30.919Z,996
2016-09-18T07:23:03.247Z,960
2016-09-18T07:23:35.572Z,908
2016-09-18T07:24:07.900Z,900
2016-09-18T07:24:40.230Z,920
2016-09-18T07:25:12.551Z,944
2016-09-18T07:25:44.861Z,952
2016-09-18T07:26:17.179Z,992
2016-09-18T07:26:49.526Z,1024
2016-09-18T07:27:21.855Z,988
2016-09-18T07:27:54.195Z,984
2016-09-18T07:28:26.514Z,1048
2016-09-18T07:28:58.835Z,1132
2016-09-18T07:29:31.170Z,1156
2016-09-18T07:30:03.483Z,1120
2016-09-18T07:30:35.807Z,1076
2016-09-18T07:31:08.131Z,1108
2016-09-18T07:31:40.462Z,1172
2016-09-18T07:32:12.791Z,1200
2016-09-18T07:32:45.130Z,1224
2016-09-18T07:33:17.461Z,1224
2016-09-18T07:33:49.803Z,1220
2016-09-18T07:34:22.135Z,1264
2016-09-18T07:34:54.464Z,1296
2016-09-18T07:35:26.793Z,1312
2016-09-18T07:35:59.110Z,1312
2016-09-18T07:36:31.429Z,1336
2016-09-18T07:37:03.756Z,1396
2016-09-18T07:37:36.085Z,1404
2016-09-18T07:38:08.411Z,1408
2016-09-18T07:38:40.740Z,1424
2016-09-18T07:39:13.065Z,1420
2016-09-18T07:39:45.386Z,1400
2016-09-18T07:40:17.805Z,1432
2016-09-18T07:40:50.147Z,1472
2016-09-18T07:41:22.477Z,1516
2016-09-18T07:41:54.802Z,1544
2016-09-18T07:42:27.124Z,1572
2016-09-18T07:42:59.470Z,1588
2016-09-18T07:43:31.808Z,1616
2016-09-18T07:44:04.123Z,1564
2016-09-18T07:44:36.444Z,1528
2016-09-18T07:45:08.779Z,1536
2016-09-18T07:45:41.120Z,1588
2016-09-18T07:46:13.438Z,1672